createdAt,value
2018-01-19T00:02:06.208Z,99778.64
2018-01-19T00:04:33.889Z,99783.96
2018-01-19T00:07:01.550Z,99785.63
2018-01-19T00:09:29.211Z,99780.55
2018-01-19T00:11:56.909Z,99790.56
2018-01-19T00:14:24.624Z,99787.67
2018-01-19T00:16:52.295Z,99786.17
2018-01-19T00:19:19.969Z,99786.70
2018-01-19T00:21:47.634Z,99791.92
2018-01-19T00:24:15.294Z,99793.15
2018-01-19T00:26:42.966Z,99797.13
2018-01-19T00:29:10.660Z,99800.29
2018-01-19T00:31:38.335Z,99799.86
2018-01-19T00:34:06.029Z,99795.75
2018-01-19T00:36:33.747Z,99802.73
2018-01-19T00:39:01.461Z,99803.03
2018-01-19T00:41:29.125Z,99804.40
2018-01-19T00:43:56.786Z,99806.86
2018-01-19T00:46:24.486Z,99807.02
2018-01-19T00:48:52.157Z,99807.85
2018-01-19T00:51:19.850Z,99805.66
2018-01-19T00:53:47.561Z,99817.04
2018-01-19T00:56:15.223Z,99815.67
2018-01-19T00:58:42.943Z,99821.95
2018-01-19T01:01:10.602Z,99818.41
2018-01-19T01:03:38.386Z,99824.31
2018-01-19T01:06:06.050Z,99830.75
2018-01-19T01:08:33.716Z,99835.65
2018-01-19T01:11:01.435Z,99840.05
2018-01-19T01:13:29.087Z,99842.23
2018-01-19T01:15:56.777Z,99847.44
2018-01-19T01:18:24.450Z,99833.31
2018-01-19T01:20:52.138Z,99847.19
2018-01-19T01:23:19.786Z,99847.03
2018-01-19T01:25:47.462Z,99849.22
2018-01-19T01:28:15.135Z,99848.80
2018-01-19T01:30:42.816Z,99854.56
2018-01-19T01:33:10.486Z,99850.04
2018-01-19T01:35:38.186Z,99852.61
2018-01-19T01:38:05.857Z,99855.20
2018-01-19T01:40:33.563Z,99852.47
2018-01-19T01:43:01.225Z,99857.41
2018-01-19T01:45:28.894Z,99859.73
2018-01-19T01:47:56.542Z,99860.43
2018-01-19T01:50:24.263Z,99866.59
2018-01-19T01:52:51.924Z,99857.94
2018-01-19T01:55:19.618Z,99863.95
2018-01-19T01:57:47.295Z,99863.70
2018-01-19T02:00:14.978Z,99871.52
2018-01-19T02:02:42.695Z,99878.91
2018-01-19T02:05:10.419Z,99866.56
2018-01-19T02:07:38.132Z,99877.13
2018-01-19T02:10:05.786Z,99868.34
2018-01-19T02:12:33.480Z,99871.75
2018-01-19T02:15:01.149Z,99876.45
2018-01-19T02:17:28.869Z,99878.61
2018-01-19T02:19:56.578Z,99886.83
2018-01-19T02:22:24.229Z,99885.20
2018-01-19T02:24:51.974Z,99882.29
2018-01-19T02:27:19.673Z,99892.59
2018-01-19T02:29:47.338Z,99896.84
2018-01-19T02:32:15.046Z,99893.83
2018-01-19T02:34:42.944Z,99894.37
2018-01-19T02:37:10.638Z,99893.43
2018-01-19T02:39:38.305Z,99900.54
2018-01-19T02:42:06.038Z,99897.13
2018-01-19T02:44:33.718Z,99898.19
2018-01-19T02:47:01.405Z,99901.75
2018-01-19T02:49:29.143Z,99902.70
2018-01-19T02:51:56.853Z,99904.91
2018-01-19T02:54:24.532Z,99909.55
2018-01-19T02:56:52.215Z,99906.69
2018-01-19T02:59:19.921Z,99909.98
2018-01-19T03:01:47.595Z,99909.56
2018-01-19T03:04:15.263Z,99912.72
2018-01-19T03:06:42.955Z,99909.98
2018-01-19T03:09:10.612Z,99911.77
2018-01-19T03:11:38.316Z,99913.81
2018-01-19T03:14:05.979Z,99914.53
2018-01-19T03:16:33.649Z,99920.70
2018-01-19T03:19:01.321Z,99919.92
2018-01-19T03:21:29.001Z,99917.01
2018-01-19T03:23:56.724Z,99927.72
2018-01-19T03:26:24.408Z,99921.39
2018-01-19T03:28:52.090Z,99925.77
2018-01-19T03:31:19.767Z,99923.19
2018-01-19T03:33:47.449Z,99928.26
2018-01-19T03:36:15.175Z,99926.34
2018-01-19T03:38:42.809Z,99929.50
2018-01-19T03:41:10.526Z,99931.13
2018-01-19T03:43:38.214Z,99935.52
2018-01-19T03:46:05.960Z,99931.11
2018-01-19T03:48:33.683Z,99940.59
2018-01-19T03:51:01.366Z,99937.72
2018-01-19T03:53:29.045Z,99950.31
2018-01-19T03:55:56.886Z,99945.53
2018-01-19T03:58:24.636Z,99947.28
2018-01-19T04:00:52.313Z,99950.33
2018-01-19T04:03:20.047Z,99954.57
2018-01-19T04:05:47.735Z,99949.50
2018-01-19T04:08:15.465Z,99954.58
2018-01-19T04:10:43.158Z,99958.84
2018-01-19T04:13:10.894Z,99963.22
2018-01-19T04:15:38.605Z,99959.25
2018-01-19T04:18:06.303Z,99967.08
2018-01-19T04:20:33.983Z,99962.95
2018-01-19T04:23:01.672Z,99966.50
2018-01-19T04:25:29.326Z,99963.50
2018-01-19T04:27:57.045Z,99974.06
2018-01-19T04:30:24.706Z,99972.29
2018-01-19T04:32:52.410Z,99981.89
2018-01-19T04:35:20.088Z,99992.75
2018-01-19T04:37:47.799Z,99989.48
2018-01-19T04:40:15.641Z,99993.31
2018-01-19T04:42:43.431Z,100000.72
2018-01-19T04:45:11.175Z,99993.60
2018-01-19T04:47:38.920Z,100009.23
2018-01-19T04:50:06.615Z,100006.49
2018-01-19T04:52:34.306Z,100006.21
2018-01-19T04:55:02.012Z,100006.08
2018-01-19T04:57:29.818Z,100003.45
2018-01-19T04:59:57.498Z,100011.02
2018-01-19T05:02:25.309Z,100013.60
2018-01-19T05:04:52.996Z,100020.62
2018-01-19T05:07:20.798Z,100019.09
2018-01-19T05:09:48.605Z,100017.46
2018-01-19T05:12:16.357Z,100009.64
2018-01-19T05:14:44.077Z,100010.47
2018-01-19T05:17:11.782Z,100011.68
2018-01-19T05:19:39.491Z,100022.24
2018-01-19T05:22:07.322Z,100018.00
2018-01-19T05:24:35.106Z,100023.90
2018-01-19T05:27:02.793Z,100023.48
2018-01-19T05:29:30.523Z,100023.89
2018-01-19T05:31:58.247Z,100030.34
2018-01-19T05:34:25.947Z,100031.17
2018-01-19T05:36:53.635Z,100033.08
2018-01-19T05:39:21.389Z,100034.05
2018-01-19T05:41:49.126Z,100035.83
2018-01-19T05:44:16.875Z,100035.16
2018-01-19T05:46:44.636Z,100043.94
2018-01-19T05:49:12.373Z,100049.97
2018-01-19T05:51:40.108Z,100050.80
2018-01-19T05:54:11.389Z,100053.80
2018-01-19T05:56:39.188Z,100059.15
2018-01-19T05:59:06.993Z,100058.73
2018-01-19T06:01:35.045Z,100058.73
2018-01-19T06:04:02.989Z,100068.46
2018-01-19T06:06:30.753Z,100069.03
2018-01-19T06:08:58.522Z,100071.63
2018-01-19T06:11:26.755Z,100072.58
2018-01-19T06:13:55.845Z,100074.53
2018-01-19T06:16:24.940Z,100072.45
2018-01-19T06:18:58.301Z,100073.16
2018-01-19T06:21:36.546Z,100069.03
2018-01-19T06:24:04.507Z,100067.91
2018-01-19T06:26:35.211Z,100075.19
2018-01-19T06:29:04.609Z,100085.47
2018-01-19T06:31:32.608Z,100085.50
2018-01-19T06:50:45.473Z,100101.14
2018-01-19T06:53:15.022Z,100101.14
2018-01-19T06:55:48.499Z,100098.23
2018-01-19T06:58:21.508Z,100094.28
2018-01-19T07:03:29.207Z,100105.93
2018-01-19T07:05:58.501Z,100107.84
2018-01-19T07:08:26.487Z,100112.53
2018-01-19T07:10:55.015Z,100111.42
2018-01-19T07:13:24.134Z,100112.66
2018-01-19T07:18:48.339Z,100123.93
2018-01-19T07:41:15.555Z,100158.20
2018-01-19T07:43:46.969Z,100167.27
2018-01-19T07:46:15.572Z,100172.92
2018-01-19T07:48:43.597Z,100172.09
2018-01-19T07:51:18.098Z,100175.25
2018-01-19T07:53:46.039Z,100171.26
2018-01-19T07:58:49.158Z,100179.75
2018-01-19T08:01:19.170Z,100185.40
2018-01-19T08:03:48.100Z,100184.70
2018-01-19T08:06:18.079Z,100185.94
2018-01-19T08:08:45.960Z,100191.42
2018-01-19T08:11:13.798Z,100190.59
2018-01-19T08:13:42.292Z,100193.75
2018-01-19T08:16:10.583Z,100208.72
2018-01-19T08:18:43.093Z,100206.77
2018-01-19T08:21:10.950Z,100214.05
2018-01-19T08:23:38.758Z,100210.09
2018-01-19T08:26:06.687Z,100211.58
2018-01-19T08:28:34.611Z,100223.65
2018-01-19T08:31:02.668Z,100219.23
2018-01-19T08:33:35.625Z,100223.36
2018-01-19T08:36:03.440Z,100226.39
2018-01-19T08:38:31.206Z,100231.59
2018-01-19T08:40:58.996Z,100241.63
2018-01-19T08:43:26.841Z,100241.09
2018-01-19T08:45:54.666Z,100244.25
2018-01-19T08:48:22.451Z,100250.16
2018-01-19T08:50:50.244Z,100255.36
2018-01-19T08:53:18.005Z,100248.23
2018-01-19T08:55:45.853Z,100248.77
2018-01-19T08:58:13.635Z,100259.88
2018-01-19T09:00:41.499Z,100262.91
2018-01-19T09:03:09.334Z,100266.73
2018-01-19T09:05:37.138Z,100270.72
2018-01-19T09:08:05.680Z,100273.47
2018-01-19T09:10:33.569Z,100272.77
2018-01-19T09:13:02.524Z,100280.87
2018-01-19T09:15:30.336Z,100284.70
2018-01-19T09:17:59.592Z,100291.28
2018-01-19T09:20:27.467Z,100290.17
2018-01-19T09:22:55.378Z,100288.36
2018-01-19T09:25:23.263Z,100289.42
2018-01-19T09:27:51.139Z,100293.11
2018-01-19T09:30:18.930Z,100290.09
2018-01-19T09:32:46.755Z,100301.34
2018-01-19T09:35:14.932Z,100300.78
2018-01-19T09:37:42.822Z,100302.88
2018-01-19T09:40:10.687Z,100310.30
2018-01-19T09:42:39.064Z,100313.48
2018-01-19T09:47:42.552Z,100320.27
2018-01-19T09:50:12.026Z,100322.61
2018-01-19T09:52:42.209Z,100322.18
2018-01-19T09:55:11.816Z,100326.02
2018-01-19T09:57:40.971Z,100326.00
2018-01-19T10:00:09.628Z,100321.87
2018-01-19T10:02:38.289Z,100326.83
2018-01-19T10:05:06.289Z,100329.03
2018-01-19T10:07:36.036Z,100328.87
2018-01-19T10:10:05.965Z,100328.59
2018-01-19T10:12:35.101Z,100334.02
2018-01-19T10:15:03.323Z,100333.21
2018-01-19T10:17:33.492Z,100341.59
2018-01-19T10:20:04.600Z,100343.20
2018-01-19T10:22:33.147Z,100343.77
2018-01-19T10:25:02.550Z,100346.78
2018-01-19T10:27:31.205Z,100353.26
2018-01-19T10:29:59.299Z,100352.46
2018-01-19T10:32:27.491Z,100350.80
2018-01-19T10:34:57.027Z,100361.08
2018-01-19T10:37:25.421Z,100355.73
2018-01-19T10:39:53.188Z,100357.66
2018-01-19T10:42:22.382Z,100354.63
2018-01-19T10:44:53.340Z,100361.50
2018-01-19T10:47:23.839Z,100360.70
2018-01-19T10:49:51.937Z,100359.03
2018-01-19T10:52:21.063Z,100355.72
2018-01-19T10:54:50.482Z,100363.25
2018-01-19T10:57:18.395Z,100360.92
2018-01-19T10:59:48.187Z,100361.77
2018-01-19T11:02:16.945Z,100366.86
2018-01-19T11:04:46.819Z,100371.11
2018-01-19T11:07:18.969Z,100362.88
2018-01-19T11:09:46.813Z,100359.02
2018-01-19T11:12:16.273Z,100358.02
2018-01-19T11:14:44.202Z,100357.81
2018-01-19T11:17:13.328Z,100352.99
2018-01-19T11:19:43.942Z,100359.02
2018-01-19T11:22:12.304Z,100353.75
2018-01-19T11:24:40.556Z,100345.52
2018-01-19T11:27:09.448Z,100356.98
2018-01-19T11:29:37.870Z,100353.80
2018-01-19T11:32:09.745Z,100354.38
2018-01-19T11:34:37.864Z,100356.72
2018-01-19T11:37:06.442Z,100357.58
2018-01-19T11:39:36.925Z,100354.67
2018-01-19T11:42:05.066Z,100358.66
2018-01-19T11:44:35.805Z,100357.41
2018-01-19T11:47:06.105Z,100354.82
2018-01-19T11:49:36.034Z,100356.44
2018-01-19T11:52:04.583Z,100358.38
2018-01-19T11:54:32.471Z,100357.73
2018-01-19T11:57:04.350Z,100360.61
2018-01-19T11:59:33.881Z,100355.91
2018-01-19T12:02:02.889Z,100356.84
2018-01-19T12:04:33.188Z,100353.52
2018-01-19T12:07:03.551Z,100359.66
2018-01-19T12:09:32.497Z,100360.58
2018-01-19T12:12:02.641Z,100369.68
2018-01-19T12:14:30.578Z,100363.95
2018-01-19T12:16:59.150Z,100372.66
2018-01-19T12:19:28.132Z,100368.92
2018-01-19T12:21:57.916Z,100374.72
2018-01-19T12:24:26.772Z,100370.31
2018-01-19T12:26:56.913Z,100374.48
2018-01-19T12:29:24.967Z,100369.50
2018-01-19T12:31:54.933Z,100368.14
2018-01-19T12:34:24.040Z,100370.02
2018-01-19T12:36:52.959Z,100370.53
2018-01-19T12:39:22.302Z,100369.08
2018-01-19T12:41:51.943Z,100373.50
2018-01-19T12:44:21.730Z,100370.10
2018-01-19T12:46:49.660Z,100374.21
2018-01-19T12:49:17.574Z,100367.64
2018-01-19T12:51:47.177Z,100370.23
2018-01-19T12:54:18.217Z,100379.06
2018-01-19T12:56:47.087Z,100377.26
2018-01-19T12:59:16.849Z,100380.56
2018-01-19T13:01:44.814Z,100385.01
2018-01-19T13:04:14.750Z,100379.09
2018-01-19T13:06:44.211Z,100384.84
2018-01-19T13:09:13.092Z,100381.00
2018-01-19T13:11:44.427Z,100387.08
2018-01-19T13:14:13.120Z,100379.77
2018-01-19T13:16:43.266Z,100383.48
2018-01-19T13:19:12.497Z,100382.83
2018-01-19T13:21:41.559Z,100387.22
2018-01-19T13:24:09.946Z,100387.09
2018-01-19T13:26:37.784Z,100384.76
2018-01-19T13:29:06.496Z,100381.47
2018-01-19T13:31:34.302Z,100376.39
2018-01-19T13:34:02.154Z,100383.00
2018-01-19T13:36:29.938Z,100390.84
2018-01-19T13:38:57.744Z,100385.64
2018-01-19T13:41:25.549Z,100387.55
2018-01-19T13:43:53.349Z,100388.68
2018-01-19T13:46:21.149Z,100388.67
2018-01-19T13:48:49.017Z,100391.14
2018-01-19T13:51:16.849Z,100401.20
2018-01-19T13:53:44.649Z,100405.73
2018-01-19T13:56:12.405Z,100402.86
2018-01-19T13:58:40.109Z,100405.60
2018-01-19T14:01:07.893Z,100407.23
2018-01-19T14:03:35.686Z,100406.27
2018-01-19T14:06:03.454Z,100412.73
2018-01-19T14:08:31.314Z,100418.41
2018-01-19T14:10:59.095Z,100412.08
2018-01-19T14:13:26.916Z,100416.77
2018-01-19T14:15:54.712Z,100417.72
2018-01-19T14:18:22.526Z,100427.23
2018-01-19T14:20:50.307Z,100415.27
2018-01-19T14:23:18.117Z,100423.80
2018-01-19T14:25:46.213Z,100418.98
2018-01-19T14:28:14.004Z,100421.05
2018-01-19T14:30:41.773Z,100422.02
2018-01-19T14:33:09.590Z,100426.27
2018-01-19T14:35:37.355Z,100431.06
2018-01-19T14:38:05.176Z,100429.69
2018-01-19T14:40:32.976Z,100435.06
2018-01-19T14:43:00.807Z,100433.43
2018-01-19T14:45:28.487Z,100439.47
2018-01-19T14:47:56.272Z,100436.44
2018-01-19T14:50:24.084Z,100437.55
2018-01-19T14:52:51.863Z,100435.61
2018-01-19T14:55:19.700Z,100439.31
2018-01-19T14:57:47.535Z,100439.73
2018-01-19T15:00:15.349Z,100439.19
2018-01-19T15:02:43.172Z,100438.77
2018-01-19T15:05:10.960Z,100447.02
2018-01-19T15:07:38.764Z,100444.97
2018-01-19T15:10:06.899Z,100457.59
2018-01-19T15:12:34.687Z,100469.58
2018-01-19T15:15:02.549Z,100462.97
2018-01-19T15:17:30.349Z,100466.12
2018-01-19T15:19:58.175Z,100462.97
2018-01-19T15:22:26.005Z,100459.80
2018-01-19T15:24:53.816Z,100463.67
2018-01-19T15:27:21.610Z,100460.37
2018-01-19T15:29:49.408Z,100464.34
2018-01-19T15:32:17.185Z,100471.21
2018-01-19T15:34:44.977Z,100470.13
2018-01-19T15:37:12.759Z,100472.04
2018-01-19T15:39:40.583Z,100462.01
2018-01-19T15:42:08.369Z,100466.00
2018-01-19T15:44:36.205Z,100449.77
2018-01-19T15:47:03.964Z,100455.13
2018-01-19T15:49:31.746Z,100453.76
2018-01-19T15:51:59.602Z,100450.72
2018-01-19T15:54:27.424Z,100454.72
2018-01-19T15:56:55.205Z,100452.80
2018-01-19T15:59:23.021Z,100453.77
2018-01-19T16:01:50.801Z,100454.72
2018-01-19T16:04:18.603Z,100454.17
2018-01-19T16:06:46.384Z,100451.55
2018-01-19T16:09:14.260Z,100450.88
2018-01-19T16:11:42.185Z,100451.14
2018-01-19T16:14:10.051Z,100453.47
2018-01-19T16:16:37.843Z,100451.55
2018-01-19T16:19:05.659Z,100453.34
2018-01-19T16:21:33.423Z,100455.55
2018-01-19T16:24:01.217Z,100449.51
2018-01-19T16:26:29.001Z,100456.09
2018-01-19T16:28:57.038Z,100452.80
2018-01-19T16:31:24.832Z,100459.39
2018-01-19T16:33:52.656Z,100455.84
2018-01-19T16:36:20.504Z,100453.09
2018-01-19T16:38:48.315Z,100449.51
2018-01-19T16:41:16.071Z,100454.84
2018-01-19T16:43:43.881Z,100455.55
2018-01-19T16:46:11.669Z,100452.93
2018-01-19T16:48:39.483Z,100456.09
2018-01-19T16:51:07.248Z,100461.72
2018-01-19T16:53:35.023Z,100455.14
2018-01-19T16:56:02.873Z,100456.09
2018-01-19T16:58:30.632Z,100454.17
2018-01-19T17:00:58.408Z,100466.97
2018-01-19T17:03:26.162Z,100460.92
2018-01-19T17:05:53.957Z,100456.52
2018-01-19T17:08:21.804Z,100453.22
2018-01-19T17:10:49.584Z,100459.67
2018-01-19T17:13:17.362Z,100459.55
2018-01-19T17:15:45.163Z,100455.01
2018-01-19T17:18:12.931Z,100460.77
2018-01-19T17:20:40.802Z,100457.19
2018-01-19T17:23:08.596Z,100466.27
2018-01-19T17:25:36.400Z,100466.42
2018-01-19T17:28:04.172Z,100465.05
2018-01-19T17:30:31.977Z,100472.05
2018-01-19T17:32:59.760Z,100465.05
2018-01-19T17:35:27.581Z,100469.84
2018-01-19T17:37:55.331Z,100473.14
2018-01-19T17:40:23.119Z,100474.52
2018-01-19T17:42:50.906Z,100473.55
2018-01-19T17:45:18.717Z,100474.25
2018-01-19T17:47:46.549Z,100470.55
2018-01-19T17:50:14.340Z,100473.68
2018-01-19T17:52:42.109Z,100470.80
2018-01-19T17:55:09.907Z,100472.18
2018-01-19T17:57:37.696Z,100464.34
2018-01-19T18:00:05.553Z,100475.63
2018-01-19T18:02:33.305Z,100465.72
2018-01-19T18:05:01.124Z,100469.84
2018-01-19T18:07:28.887Z,100475.76
2018-01-19T18:09:56.735Z,100471.77
2018-01-19T18:12:24.514Z,100475.76
2018-01-19T18:14:52.307Z,100474.92
2018-01-19T18:17:20.086Z,100469.01
2018-01-19T18:19:47.897Z,100467.22
2018-01-19T18:22:15.660Z,100464.47
2018-01-19T18:24:43.467Z,100470.25
2018-01-19T18:27:11.271Z,100470.38
2018-01-19T18:29:39.072Z,100475.34
2018-01-19T18:32:06.836Z,100473.29
2018-01-19T18:34:34.600Z,100477.00
2018-01-19T18:37:02.394Z,100480.58
2018-01-19T18:39:30.129Z,100476.72
2018-01-19T18:41:57.945Z,100469.42
2018-01-19T18:44:25.679Z,100478.09
2018-01-19T18:46:53.509Z,100479.46
2018-01-19T18:49:21.234Z,100475.34
2018-01-19T18:51:49.064Z,100478.92
2018-01-19T18:54:16.806Z,100476.84
2018-01-19T18:56:44.605Z,100478.22
2018-01-19T18:59:12.347Z,100490.05
2018-01-19T19:01:40.168Z,100483.88
2018-01-19T19:04:07.859Z,100492.80
2018-01-19T19:06:35.687Z,100486.62
2018-01-19T19:09:04.370Z,100493.50
2018-01-19T19:11:32.150Z,100496.50
2018-01-19T19:13:59.997Z,100494.59
2018-01-19T19:16:27.801Z,100502.58
2018-01-19T19:18:55.604Z,100496.38
2018-01-19T19:21:23.426Z,100492.25
2018-01-19T19:23:51.266Z,100500.92
2018-01-19T19:26:19.098Z,100505.88
2018-01-19T19:28:46.893Z,100499.80
2018-01-19T19:31:14.728Z,100491.71
2018-01-19T19:33:42.572Z,100493.50
2018-01-19T19:36:10.387Z,100500.22
2018-01-19T19:38:38.228Z,100504.63
2018-01-19T19:41:06.048Z,100504.09
2018-01-19T19:43:33.882Z,100499.14
2018-01-19T19:46:01.795Z,100502.14
2018-01-19T19:48:29.604Z,100504.64
2018-01-19T19:50:57.466Z,100505.05
2018-01-19T19:53:25.260Z,100505.89
2018-01-19T19:55:53.052Z,100506.55
2018-01-19T19:58:20.838Z,100503.39
2018-01-19T20:00:48.602Z,100511.38
2018-01-19T20:03:16.383Z,100510.97
2018-01-19T20:05:44.244Z,100508.63
2018-01-19T20:08:12.029Z,100515.22
2018-01-19T20:10:39.895Z,100521.80
2018-01-19T20:13:07.657Z,100517.42
2018-01-19T20:15:35.458Z,100519.75
2018-01-19T20:18:03.284Z,100520.59
2018-01-19T20:20:31.032Z,100509.84
2018-01-19T20:22:58.832Z,100514.67
2018-01-19T20:25:26.571Z,100520.70
2018-01-19T20:27:54.421Z,100516.71
2018-01-19T20:30:22.203Z,100512.45
2018-01-19T20:32:50.034Z,100513.28
2018-01-19T20:35:17.825Z,100516.85
2018-01-19T20:37:45.655Z,100514.52
2018-01-19T20:40:13.411Z,100516.03
2018-01-19T20:42:41.237Z,100513.16
2018-01-19T20:45:09.048Z,100513.41
2018-01-19T20:47:36.838Z,100516.03
2018-01-19T20:50:04.662Z,100518.78
2018-01-19T20:52:32.519Z,100518.65
2018-01-19T20:55:00.335Z,100524.39
2018-01-19T20:57:28.211Z,100524.55
2018-01-19T20:59:56.010Z,100521.78
2018-01-19T21:02:23.851Z,100522.74
2018-01-19T21:04:51.668Z,100516.53
2018-01-19T21:07:19.512Z,100514.48
2018-01-19T21:09:47.281Z,100519.15
2018-01-19T21:12:15.117Z,100522.84
2018-01-19T21:14:42.886Z,100524.07
2018-01-19T21:17:10.713Z,100524.35
2018-01-19T21:19:38.460Z,100522.01
2018-01-19T21:22:06.295Z,100520.62
2018-01-19T21:24:34.086Z,100525.41
2018-01-19T21:27:01.922Z,100522.10
2018-01-19T21:29:29.667Z,100525.27
2018-01-19T21:31:57.519Z,100523.05
2018-01-19T21:34:25.319Z,100528.56
2018-01-19T21:36:53.161Z,100533.39
2018-01-19T21:39:20.946Z,100530.89
2018-01-19T21:41:48.807Z,100527.89
2018-01-19T21:44:16.606Z,100522.67
2018-01-19T21:46:44.426Z,100533.00
2018-01-19T21:49:13.138Z,100521.20
2018-01-19T21:51:40.957Z,100520.25
2018-01-19T21:54:08.746Z,100521.34
2018-01-19T21:56:36.525Z,100525.34
2018-01-19T21:59:04.322Z,100515.56
2018-01-19T22:01:32.107Z,100517.52
2018-01-19T22:03:59.939Z,100519.98
2018-01-19T22:06:27.699Z,100516.14
2018-01-19T22:08:55.603Z,100518.73
2018-01-19T22:11:23.375Z,100515.86
2018-01-19T22:13:51.204Z,100518.61
2018-01-19T22:16:18.940Z,100515.86
2018-01-19T22:18:46.771Z,100516.81
2018-01-19T22:21:14.556Z,100520.11
2018-01-19T22:23:42.383Z,100513.11
2018-01-19T22:26:10.173Z,100509.41
2018-01-19T22:28:37.963Z,100513.23
2018-01-19T22:31:05.708Z,100509.27
2018-01-19T22:33:33.545Z,100514.77
2018-01-19T22:36:01.304Z,100517.23
2018-01-19T22:38:29.134Z,100508.57
2018-01-19T22:40:56.888Z,100514.60
2018-01-19T22:43:24.714Z,100508.97
2018-01-19T22:45:52.500Z,100513.08
2018-01-19T22:48:20.286Z,100515.83
2018-01-19T22:50:48.015Z,100508.41
2018-01-19T22:53:15.798Z,100515.69
2018-01-19T22:55:43.592Z,100510.05
2018-01-19T22:58:11.462Z,100513.33
2018-01-19T23:00:39.274Z,100520.61
2018-01-19T23:03:07.094Z,100517.58
2018-01-19T23:05:34.846Z,100517.02
2018-01-19T23:08:02.786Z,100513.85
2018-01-19T23:10:30.565Z,100517.55
2018-01-19T23:12:58.349Z,100518.90
2018-01-19T23:15:26.087Z,100517.25
2018-01-19T23:17:53.896Z,100515.73
2018-01-19T23:20:21.637Z,100521.05
2018-01-19T23:22:49.407Z,100516.49
2018-01-19T23:25:17.148Z,100516.08
2018-01-19T23:27:44.939Z,100520.01
2018-01-19T23:30:12.687Z,100520.67
2018-01-19T23:32:40.501Z,100514.47
2018-01-19T23:35:08.268Z,100521.19
2018-01-19T23:37:36.083Z,100523.53
2018-01-19T23:40:04.250Z,100526.59
2018-01-19T23:42:32.061Z,100525.25
2018-01-19T23:44:59.759Z,100522.23
2018-01-19T23:47:27.483Z,100521.67
2018-01-19T23:49:55.325Z,100528.50
2018-01-19T23:52:23.063Z,100530.12
2018-01-19T23:54:50.857Z,100532.84
2018-01-19T23:57:18.637Z,100530.50
2018-01-19T23:59:46.422Z,100526.39
